Notice: Undefined index: language in /home/u484346964/domains/flybondivirtual.com.ar/public_html/vam/index.php on line 26
Virtual Airlines Manager

 METAR AND TAF INFORMATION
METAR FOR SADP
ADDS - METARS form results

(2149 UTC 21 July 2019)
Data provider http://aviationweather.gov/metar/data/
 
METAR text: SADP 212128Z 19010KT 6000 TSRA BKN008 FEW045CB OVC050 19/18 Q1002
Conditions at: SADP (EL PALOMAR AIRPO, AR) observed 2128 UTC 21 July 2019
Temperature: 19.0°C (66°F)
Dewpoint: 18.0°C (64°F) [RH = 94%]
Pressure (altimeter): 29.59 inches Hg (1002.0 mb)
Winds: from the S (190 degrees) at 12 MPH (10 knots; 5.1 m/s)
Visibility: 4 miles ( 6 km)
Ceiling: 800 feet AGL
Clouds: broken clouds at 800 feet AGL
few clouds at 4500 feet AGL
overcast cloud deck at 5000 feet AGL
Weather: TSRA  (rain associated with thunderstorm(s))

 AIRPORT MAP

 RUNWAY INFORMATION
Runway 16 Runway length 6923 ft Runway width 164 ft
Runway elevation 43 ft Runway displaced threshold 0 ft Runway heading 157
Runway 34 Runway length 6923 ft Runway width 164 ft
Runway elevation 59 ft Runway displaced threshold 0 ft Runway heading 337

 AIRPORT FREQUENCIES
Type TWR Name PALOMAR TW Frequency 118.9 MHZ

 AIRPORT NEAR NAVIGATION AIDS
Type VOR-DME Name El Palomar Frequency 115200 KHZ



Powered by Virtual Airlines Manager [v2.6.2]